Time;durP1;ratioP1;P1;durP2;ratioP2;P2;SDS_P1;SDS_P2;PMS_P1;PMS_P2;Temp;Humidity;BMP_temperature;BMP_pressure;BME280_temperature;BME280_humidity;BME280_pressure;Samples;Min_cycle;Max_cycle;Signal;HPM_P1;HPM_P2
2022/09/18 00:00:57;;;;;;;7.73;5.90;;;;;;;11.10;100.00;99181.50;4936161;29;20098;-75
2022/09/18 00:03:23;;;;;;;8.57;5.87;;;;;;;11.08;100.00;99174.75;4935552;29;20499;-75
2022/09/18 00:05:48;;;;;;;8.43;6.40;;;;;;;11.12;100.00;99179.47;4936535;29;20042;-75
2022/09/18 00:08:14;;;;;;;7.80;6.50;;;;;;;11.14;100.00;99181.91;4935915;29;20036;-75
2022/09/18 00:10:42;;;;;;;9.83;6.53;;;;;;;11.11;100.00;99185.00;4918679;29;20451;-75
2022/09/18 00:13:09;;;;;;;10.50;6.97;;;;;;;11.14;100.00;99185.41;4935947;29;20066;-76
2022/09/18 00:15:35;;;;;;;7.00;6.27;;;;;;;11.13;100.00;99186.44;4936237;29;20054;-75
2022/09/18 00:18:02;;;;;;;7.60;6.27;;;;;;;11.16;100.00;99185.19;4935648;29;20049;-76
2022/09/18 00:20:28;;;;;;;9.00;6.87;;;;;;;11.16;100.00;99193.19;4935844;29;20044;-75
2022/09/18 00:22:53;;;;;;;7.00;6.30;;;;;;;11.02;100.00;99188.88;4918577;29;20036;-75
2022/09/18 00:25:19;;;;;;;7.13;6.40;;;;;;;11.07;100.00;99199.75;4935813;29;20550;-76
2022/09/18 00:27:44;;;;;;;8.20;6.13;;;;;;;11.05;100.00;99194.63;4935996;29;20118;-75
2022/09/18 00:30:10;;;;;;;6.10;5.17;;;;;;;11.07;100.00;99203.22;4935247;29;20039;-75
2022/09/18 00:33:01;;;;;;;5.63;4.90;;;;;;;11.06;100.00;99214.09;4935682;29;20151;-75
2022/09/18 00:35:26;;;;;;;5.77;5.17;;;;;;;11.07;100.00;99216.56;4936067;29;20164;-75
2022/09/18 00:37:52;;;;;;;7.70;4.63;;;;;;;11.03;100.00;99206.50;4918899;29;20498;-75
2022/09/18 00:40:17;;;;;;;4.40;3.97;;;;;;;10.99;100.00;99211.44;4935746;29;20040;-75
2022/09/18 00:42:43;;;;;;;5.57;3.80;;;;;;;10.98;100.00;99222.25;4935256;29;20495;-76
2022/09/18 00:45:10;;;;;;;4.77;3.77;;;;;;;10.99;100.00;99223.94;4935567;29;20131;-75
2022/09/18 00:47:46;;;;;;;3.90;2.93;;;;;;;10.94;100.00;99221.84;4935501;29;20042;-75
2022/09/18 00:50:17;;;;;;;3.33;3.07;;;;;;;10.90;100.00;99227.78;4940665;29;20441;-74
2022/09/18 00:53:00;;;;;;;5.27;3.27;;;;;;;10.87;100.00;99231.66;4954954;29;20042;-75
2022/09/18 00:55:36;;;;;;;4.23;3.67;;;;;;;10.91;100.00;99243.56;4951919;29;20040;-76
2022/09/18 00:58:03;;;;;;;3.13;2.87;;;;;;;10.80;100.00;99226.34;4943997;29;20043;-76
2022/09/18 01:00:30;;;;;;;3.33;3.03;;;;;;;10.87;100.00;99242.31;4945526;29;20011;-75
2022/09/18 01:02:57;;;;;;;3.83;3.43;;;;;;;10.90;100.00;99251.75;4960247;28;20063;-76
2022/09/18 01:05:51;;;;;;;3.40;3.10;;;;;;;10.92;100.00;99255.03;4959475;28;20038;-76
2022/09/18 01:08:40;;;;;;;5.87;2.70;;;;;;;10.92;100.00;99257.69;4960141;28;20046;-76
2022/09/18 01:11:39;;;;;;;3.60;3.20;;;;;;;10.91;100.00;99253.41;4946614;28;20059;-75
2022/09/18 01:14:12;;;;;;;4.40;3.10;;;;;;;10.93;100.00;99267.34;4937000;29;20063;-74
2022/09/18 01:16:55;;;;;;;3.60;2.90;;;;;;;10.94;100.00;99260.97;4936574;29;20055;-75
2022/09/18 01:19:52;;;;;;;7.57;2.80;;;;;;;10.94;100.00;99263.63;4935774;29;20036;-75
2022/09/18 01:22:46;;;;;;;3.47;2.22;;;;;;;10.94;100.00;99266.31;4936274;29;20787;-75
2022/09/18 01:25:43;;;;;;;3.03;2.70;;;;;;;10.91;100.00;99269.38;4936771;29;20043;-75
2022/09/18 01:28:30;;;;;;;2.50;2.10;;;;;;;10.91;100.00;99264.06;4934437;29;20042;-78
2022/09/18 01:31:05;;;;;;;4.20;2.37;;;;;;;10.88;100.00;99275.94;4934689;29;20389;-75
2022/09/18 01:33:44;;;;;;;2.83;2.30;;;;;;;10.83;100.00;99284.53;4935334;29;20048;-74
2022/09/18 01:36:14;;;;;;;2.20;2.00;;;;;;;10.82;100.00;99280.22;4934957;29;20502;-74
2022/09/18 01:39:13;;;;;;;2.23;2.03;;;;;;;10.85;100.00;99282.47;4934810;29;20114;-75
2022/09/18 01:41:41;;;;;;;2.90;2.07;;;;;;;10.82;100.00;99288.22;4930736;29;20046;-76
2022/09/18 01:44:13;;;;;;;2.00;1.90;;;;;;;10.81;100.00;99283.91;4934520;29;20521;-75
2022/09/18 01:46:42;;;;;;;3.87;2.40;;;;;;;10.79;100.00;99298.44;4934510;29;20415;-76
2022/09/18 01:49:19;;;;;;;2.63;2.08;;;;;;;10.64;100.00;99287.94;4934533;29;20123;-75
2022/09/18 01:52:05;;;;;;;2.13;1.90;;;;;;;10.68;100.00;99294.50;4934647;29;20051;-77
2022/09/18 01:54:36;;;;;;;2.87;2.13;;;;;;;10.59;100.00;99292.22;4934934;29;20130;-76
2022/09/18 01:57:06;;;;;;;6.90;2.13;;;;;;;10.53;100.00;99299.97;4934357;29;20035;-75
2022/09/18 01:59:54;;;;;;;6.57;4.37;;;;;;;10.52;100.00;99310.81;4934728;29;20044;-76
2022/09/18 02:02:31;;;;;;;4.85;2.42;;;;;;;10.49;100.00;99311.22;4934937;29;20518;-75
2022/09/18 02:04:59;;;;;;;2.30;2.07;;;;;;;10.46;100.00;99319.59;4917405;29;20040;-74
2022/09/18 02:07:43;;;;;;;2.20;2.10;;;;;;;10.44;100.00;99330.44;4917679;29;20103;-75
2022/09/18 02:10:09;;;;;;;2.20;2.00;;;;;;;10.35;100.00;99322.78;4917322;29;20099;-75
2022/09/18 02:12:39;;;;;;;2.43;1.83;;;;;;;10.35;100.00;99328.13;4934455;29;20110;-75
2022/09/18 02:15:10;;;;;;;3.00;1.97;;;;;;;10.36;100.00;99329.75;4934363;29;20083;-75
2022/09/18 02:17:42;;;;;;;1.80;1.70;;;;;;;10.33;100.00;99336.28;4937241;29;20058;-74
2022/09/18 02:20:15;;;;;;;2.27;2.07;;;;;;;10.27;100.00;99328.28;4938562;29;20471;-74
2022/09/18 02:22:43;;;;;;;2.77;2.57;;;;;;;10.34;100.00;99343.25;4937976;29;20130;-76
2022/09/18 02:25:11;;;;;;;2.50;2.30;;;;;;;10.35;100.00;99352.06;4938444;29;20080;-75
2022/09/18 02:27:38;;;;;;;3.57;2.63;;;;;;;10.44;100.00;99353.56;4948206;28;20051;-75
2022/09/18 02:30:05;;;;;;;2.93;2.70;;;;;;;10.41;100.00;99345.97;4945900;28;20054;-75
2022/09/18 02:32:34;;;;;;;4.37;2.97;;;;;;;10.46;100.00;99356.84;4962525;28;20039;-74
2022/09/18 02:35:01;;;;;;;3.17;2.87;;;;;;;10.42;100.00;99358.28;4962344;28;20079;-73
2022/09/18 02:37:58;;;;;;;4.27;3.20;;;;;;;10.53;100.00;99369.19;4946345;28;20364;-75
2022/09/18 02:40:33;;;;;;;3.53;3.10;;;;;;;10.53;100.00;99368.34;4939878;29;20566;-76
2022/09/18 02:42:58;;;;;;;2.90;2.70;;;;;;;10.58;100.00;99371.25;4922507;29;20342;-75
2022/09/18 02:45:42;;;;;;;3.57;3.27;;;;;;;10.62;100.00;99367.16;4937369;29;20080;-76
2022/09/18 02:48:43;;;;;;;2.93;2.57;;;;;;;10.59;100.00;99367.56;4937994;29;20533;-76
2022/09/18 02:51:26;;;;;;;3.40;3.00;;;;;;;10.62;100.00;99369.84;4938413;29;20036;-75
2022/09/18 02:54:00;;;;;;;3.17;2.53;;;;;;;10.66;100.00;99379.06;4922978;29;20048;-76
2022/09/18 02:56:44;;;;;;;2.60;2.30;;;;;;;10.68;100.00;99387.69;4943077;29;20409;-75
2022/09/18 02:59:35;;;;;;;3.00;2.67;;;;;;;10.65;100.00;99393.41;4941880;29;20047;-75
2022/09/18 03:02:01;;;;;;;2.30;2.10;;;;;;;10.62;100.00;99395.63;4943198;29;20012;-76
2022/09/18 03:04:27;;;;;;;2.43;2.23;;;;;;;10.58;100.00;99392.53;4929858;29;20047;-76
2022/09/18 03:06:53;;;;;;;2.33;2.17;;;;;;;10.56;100.00;99405.22;4903324;29;20040;-75
2022/09/18 03:09:19;;;;;;;2.60;2.40;;;;;;;10.52;100.00;99406.66;4902248;29;20503;-75
2022/09/18 03:11:45;;;;;;;2.50;2.27;;;;;;;10.47;100.00;99406.41;4918718;29;20031;-75
2022/09/18 03:14:11;;;;;;;2.70;2.03;;;;;;;10.43;100.00;99405.16;4918807;29;20083;-76
2022/09/18 03:16:37;;;;;;;2.30;2.10;;;;;;;10.35;100.00;99411.44;4919302;29;20071;-75
2022/09/18 03:19:02;;;;;;;2.50;2.30;;;;;;;10.30;100.00;99411.19;4918898;29;20499;-75
2022/09/18 03:21:28;;;;;;;2.73;2.53;;;;;;;10.34;100.00;99417.78;4919651;29;20044;-74
2022/09/18 03:23:54;;;;;;;2.70;2.50;;;;;;;10.39;100.00;99419.84;4918625;29;20388;-74
2022/09/18 03:26:20;;;;;;;2.97;2.70;;;;;;;10.40;100.00;99418.81;4901189;29;20036;-74
2022/09/18 03:28:45;;;;;;;3.23;2.93;;;;;;;10.38;100.00;99418.19;4917086;29;20085;-75
2022/09/18 03:31:11;;;;;;;4.20;3.23;;;;;;;10.34;100.00;99415.09;4917488;29;20520;-74
2022/09/18 03:33:37;;;;;;;3.20;3.00;;;;;;;10.25;100.00;99418.94;4917549;29;20044;-75
2022/09/18 03:36:05;;;;;;;4.50;3.70;;;;;;;10.22;100.00;99430.78;4917761;29;20047;-75
2022/09/18 03:38:31;;;;;;;4.00;3.67;;;;;;;10.11;100.00;99417.97;4917716;29;20043;-76
2022/09/18 03:40:57;;;;;;;4.70;4.27;;;;;;;10.18;100.00;99424.19;4918089;29;20036;-76
2022/09/18 03:43:23;;;;;;;4.80;4.40;;;;;;;10.19;100.00;99431.16;4917523;29;20119;-74
2022/09/18 03:45:49;;;;;;;6.47;4.97;;;;;;;10.22;100.00;99422.81;4917376;29;20043;-75
2022/09/18 03:48:14;;;;;;;6.47;4.87;;;;;;;10.20;100.00;99432.81;4917524;29;20141;-74
2022/09/18 03:50:40;;;;;;;5.50;5.00;;;;;;;10.22;100.00;99432.63;4900625;29;20062;-77
2022/09/18 03:53:07;;;;;;;6.60;5.90;;;;;;;10.19;100.00;99431.16;4917486;29;20415;-73
2022/09/18 03:55:34;;;;;;;5.97;5.37;;;;;;;10.24;100.00;99439.41;4917486;29;20032;-76
2022/09/18 03:58:00;;;;;;;6.10;5.53;;;;;;;10.20;100.00;99431.97;4917196;29;20555;-75
2022/09/18 04:00:26;;;;;;;8.27;7.07;;;;;;;10.18;100.00;99440.16;4915664;29;20039;-74
2022/09/18 04:02:51;;;;;;;12.80;7.33;;;;;;;10.19;100.00;99443.63;4917536;29;20040;-76
2022/09/18 04:05:17;;;;;;;10.27;7.33;;;;;;;10.20;100.00;99448.78;4917621;29;20131;-75
2022/09/18 04:07:42;;;;;;;8.00;7.17;;;;;;;10.21;100.00;99450.44;4918223;29;20036;-74
2022/09/18 04:10:08;;;;;;;9.47;7.50;;;;;;;10.22;100.00;99449.41;4921846;29;20046;-73
2022/09/18 04:12:34;;;;;;;8.00;7.00;;;;;;;10.26;100.00;99462.34;4939788;29;20048;-74
2022/09/18 04:15:00;;;;;;;8.87;8.00;;;;;;;10.28;100.00;99476.28;4939246;29;20060;-74
2022/09/18 04:17:25;;;;;;;8.80;7.90;;;;;;;10.30;100.00;99477.72;4940741;29;20032;-72
2022/09/18 04:19:51;;;;;;;9.27;7.87;;;;;;;10.33;100.00;99474.69;4939579;29;20060;-75
2022/09/18 04:22:17;;;;;;;9.13;7.70;;;;;;;10.37;100.00;99486.56;4939577;29;20063;-75
2022/09/18 04:24:43;;;;;;;9.83;8.37;;;;;;;10.43;100.00;99488.50;4937781;29;20052;-74
2022/09/18 04:27:09;;;;;;;8.50;7.57;;;;;;;10.48;100.00;99482.59;4931519;29;20044;-76
2022/09/18 04:29:34;;;;;;;8.07;7.27;;;;;;;10.51;100.00;99479.53;4917262;29;20562;-76
2022/09/18 04:32:00;;;;;;;8.80;7.90;;;;;;;10.57;100.00;99486.75;4917021;29;20073;-76
2022/09/18 04:34:25;;;;;;;11.33;8.10;;;;;;;10.57;100.00;99497.38;4916874;29;20472;-76
2022/09/18 04:36:52;;;;;;;9.53;8.63;;;;;;;10.51;100.00;99476.88;4899752;29;20427;-74
2022/09/18 04:39:17;;;;;;;8.63;7.73;;;;;;;10.59;100.00;99495.34;4916448;29;20036;-75
2022/09/18 04:41:44;;;;;;;11.23;8.37;;;;;;;10.64;100.00;99502.75;4914264;29;20492;-74
2022/09/18 04:44:10;;;;;;;10.53;9.43;;;;;;;10.64;100.00;99487.59;4914983;29;20044;-75
2022/09/18 04:46:36;;;;;;;9.60;8.13;;;;;;;10.77;100.00;99498.38;4916085;29;20044;-76
2022/09/18 04:49:02;;;;;;;11.13;8.27;;;;;;;10.85;100.00;99494.72;4916262;29;20389;-75
2022/09/18 04:51:28;;;;;;;10.20;7.90;;;;;;;10.89;100.00;99498.63;4899348;29;20127;-75
2022/09/18 04:53:53;;;;;;;10.20;8.40;;;;;;;11.00;100.00;99502.63;4916189;29;20150;-76
2022/09/18 04:56:19;;;;;;;9.80;8.80;;;;;;;11.06;100.00;99513.31;4916029;29;20032;-76
2022/09/18 04:58:44;;;;;;;12.00;8.47;;;;;;;10.94;99.68;99509.53;4916052;29;20040;-75
2022/09/18 05:01:10;;;;;;;10.43;8.50;;;;;;;10.92;100.00;99522.22;4916289;29;20044;-75
2022/09/18 05:03:35;;;;;;;9.30;8.10;;;;;;;10.83;100.00;99524.22;4916106;29;20488;-75
2022/09/18 05:06:01;;;;;;;10.80;8.97;;;;;;;10.77;100.00;99535.66;4916421;29;20051;-76
2022/09/18 05:08:28;;;;;;;9.30;8.30;;;;;;;10.71;100.00;99531.09;4915811;29;20087;-76
2022/09/18 05:10:54;;;;;;;10.87;8.00;;;;;;;10.71;100.00;99536.44;4916107;29;20481;-76
2022/09/18 05:13:21;;;;;;;9.83;8.27;;;;;;;10.65;100.00;99536.34;4915873;29;20059;-76
2022/09/18 05:15:47;;;;;;;9.07;8.17;;;;;;;10.60;100.00;99541.44;4915623;29;20043;-75
2022/09/18 05:18:12;;;;;;;9.93;8.67;;;;;;;10.61;100.00;99533.25;4915769;29;20141;-76
2022/09/18 05:20:38;;;;;;;8.77;7.47;;;;;;;10.73;100.00;99542.38;4915911;29;20057;-75
2022/09/18 05:23:04;;;;;;;9.87;8.47;;;;;;;10.78;100.00;99542.63;4915542;29;20499;-76
2022/09/18 05:25:30;;;;;;;9.53;8.53;;;;;;;10.83;100.00;99548.19;4915781;29;20469;-76
2022/09/18 05:27:57;;;;;;;11.23;8.63;;;;;;;10.89;100.00;99551.09;4915956;29;20119;-75
2022/09/18 05:30:24;;;;;;;9.90;8.37;;;;;;;10.98;100.00;99553.41;4915711;29;20032;-77
2022/09/18 05:32:57;;;;;;;9.43;7.60;;;;;;;10.97;100.00;99556.25;4929425;29;20407;-77
2022/09/18 05:35:24;;;;;;;9.93;7.97;;;;;;;10.94;100.00;99556.66;4934979;29;20064;-77
2022/09/18 05:37:51;;;;;;;9.10;8.20;;;;;;;10.91;100.00;99565.84;4934780;29;20043;-76
2022/09/18 05:40:18;;;;;;;8.83;7.93;;;;;;;10.91;100.00;99567.69;4935366;29;20071;-76
2022/09/18 05:42:45;;;;;;;9.40;7.33;;;;;;;10.90;100.00;99571.38;4934676;29;20063;-77
2022/09/18 05:45:12;;;;;;;10.03;7.37;;;;;;;10.94;100.00;99573.47;4935117;29;20035;-76
2022/09/18 05:47:37;;;;;;;9.10;8.20;;;;;;;11.00;100.00;99575.38;4918281;29;20518;-77
2022/09/18 05:50:03;;;;;;;9.77;8.47;;;;;;;11.02;100.00;99569.84;4934433;29;20122;-78
2022/09/18 05:52:28;;;;;;;7.47;6.67;;;;;;;11.03;100.00;99574.16;4937180;29;20107;-78
2022/09/18 05:54:54;;;;;;;7.40;6.43;;;;;;;11.00;100.00;99572.72;4938045;29;20399;-77
2022/09/18 05:57:19;;;;;;;8.57;6.63;;;;;;;11.06;100.00;99566.59;4938236;29;20044;-76
2022/09/18 05:59:45;;;;;;;8.17;6.63;;;;;;;11.13;100.00;99567.44;4938895;29;20414;-76
2022/09/18 06:02:10;;;;;;;6.53;5.83;;;;;;;11.23;100.00;99567.09;4939373;29;20067;-76
2022/09/18 06:04:36;;;;;;;6.87;5.57;;;;;;;11.22;100.00;99568.13;4923045;29;20086;-78
2022/09/18 06:07:01;;;;;;;7.03;5.13;;;;;;;11.30;100.00;99577.81;4921763;29;20575;-77
2022/09/18 06:09:27;;;;;;;8.47;5.70;;;;;;;11.39;100.00;99579.28;4929652;29;20451;-80
2022/09/18 06:11:52;;;;;;;7.80;5.80;;;;;;;11.33;100.00;99566.75;4903395;29;20051;-76
2022/09/18 06:14:19;;;;;;;6.90;5.40;;;;;;;11.42;100.00;99577.06;4921599;29;20547;-77
2022/09/18 06:16:45;;;;;;;6.10;4.77;;;;;;;11.38;100.00;99572.31;4920123;29;20067;-78
2022/09/18 06:19:10;;;;;;;6.37;4.70;;;;;;;11.41;100.00;99572.75;4902233;29;20131;-79
2022/09/18 06:21:36;;;;;;;7.00;4.43;;;;;;;11.49;99.56;99571.75;4902318;29;20044;-77
2022/09/18 06:24:01;;;;;;;6.33;5.10;;;;;;;11.52;99.27;99589.19;4919078;29;20054;-78
2022/09/18 06:26:27;;;;;;;6.30;5.37;;;;;;;11.56;100.00;99587.78;4918696;29;20059;-76
2022/09/18 06:28:52;;;;;;;6.87;5.10;;;;;;;11.53;99.76;99588.19;4918758;29;20399;-78
2022/09/18 06:31:18;;;;;;;4.97;3.80;;;;;;;11.58;99.61;99594.59;4918658;29;20098;-76
2022/09/18 06:33:43;;;;;;;4.93;4.43;;;;;;;11.64;99.30;99598.31;4903078;29;20040;-79
2022/09/18 06:36:10;;;;;;;7.30;6.60;;;;;;;11.90;99.13;99595.78;4919134;29;20408;-78
2022/09/18 06:38:36;;;;;;;10.97;9.73;;;;;;;12.05;98.09;99591.09;4902106;29;20060;-79
2022/09/18 06:41:01;;;;;;;4.30;3.83;;;;;;;12.17;96.93;99607.38;4918726;29;20048;-77
2022/09/18 06:43:27;;;;;;;4.37;3.37;;;;;;;12.22;95.99;99598.75;4918958;29;20048;-77
2022/09/18 06:45:54;;;;;;;4.07;3.47;;;;;;;12.25;95.84;99593.84;4919490;29;20087;-76
2022/09/18 06:48:20;;;;;;;3.60;3.30;;;;;;;12.34;94.79;99602.47;4921608;29;20063;-77
2022/09/18 06:50:57;;;;;;;4.80;3.30;;;;;;;12.10;95.11;99590.50;4913386;29;20385;-76
2022/09/18 06:53:23;;;;;;;4.40;3.00;;;;;;;11.99;95.58;99588.41;4931149;29;20083;-78
2022/09/18 06:55:49;;;;;;;3.30;2.70;;;;;;;12.09;94.77;99610.19;4928042;29;20127;-76
2022/09/18 06:58:16;;;;;;;3.37;2.80;;;;;;;12.20;94.35;99622.16;4922758;29;20130;-76
2022/09/18 07:00:42;;;;;;;2.80;2.60;;;;;;;12.21;93.63;99607.78;4928121;29;20028;-74
2022/09/18 07:03:08;;;;;;;3.50;3.10;;;;;;;12.26;93.42;99616.84;4932595;29;20044;-77
2022/09/18 07:05:38;;;;;;;3.23;2.90;;;;;;;12.23;94.38;99627.91;4930891;29;20095;-80
2022/09/18 07:08:03;;;;;;;7.50;5.00;;;;;;;12.31;95.04;99627.72;4920838;29;20484;-76
2022/09/18 07:11:31;;;;;;;;;;;;;;;;;;;;;
2022/09/18 07:14:45;;;;;;;4.27;3.47;;;;;;;12.47;92.16;99642.56;4909440;29;20051;-77
2022/09/18 07:17:13;;;;;;;4.57;3.42;;;;;;;12.32;90.80;99617.88;4925642;29;20048;-76
2022/09/18 07:19:38;;;;;;;4.70;3.10;;;;;;;12.43;91.94;99643.97;4927027;29;20415;-78
2022/09/18 07:22:04;;;;;;;7.73;4.03;;;;;;;12.29;92.37;99628.97;4932713;29;20035;-76
2022/09/18 07:24:30;;;;;;;5.57;3.90;;;;;;;12.20;92.47;99606.16;4927409;29;20032;-77
2022/09/18 07:30:02;;;;;;;3.40;3.10;;;;;;;12.35;91.99;99604.94;4860351;29;20076;-78
2022/09/18 07:32:31;;;;;;;4.17;3.40;;;;;;;12.40;90.79;99588.31;4841255;29;20047;-77
2022/09/18 07:35:30;;;;;;;3.17;2.73;;;;;;;12.83;89.84;99650.22;4894272;29;20048;-82
2022/09/18 07:37:59;;;;;;;3.40;3.10;;;;;;;12.91;87.91;99647.34;4901225;29;20416;-77
2022/09/18 07:40:28;;;;;;;2.60;2.40;;;;;;;13.09;87.75;99660.13;4917204;29;20444;-77
2022/09/18 07:43:20;;;;;;;3.63;3.33;;;;;;;13.18;87.78;99664.25;4912653;29;20407;-76
2022/09/18 07:45:45;;;;;;;3.63;2.80;;;;;;;13.30;87.26;99654.59;4909290;29;20043;-78
2022/09/18 07:48:11;;;;;;;2.90;2.70;;;;;;;13.40;85.93;99658.69;4916397;29;20648;-77
2022/09/18 07:50:37;;;;;;;4.30;3.53;;;;;;;13.45;85.22;99666.91;4899647;29;20040;-75
2022/09/18 07:53:04;;;;;;;3.00;2.77;;;;;;;13.52;85.30;99670.38;4915894;29;20135;-78
2022/09/18 07:55:32;;;;;;;3.60;2.83;;;;;;;13.63;84.53;99669.78;4915475;29;20040;-77
2022/09/18 07:58:00;;;;;;;3.30;3.00;;;;;;;13.70;82.81;99678.59;4899651;29;20181;-78
2022/09/18 08:00:28;;;;;;;2.30;2.10;;;;;;;13.64;82.26;99674.91;4915155;29;20048;-77
2022/09/18 08:03:20;;;;;;;4.95;4.47;;;;;;;13.77;84.51;99684.75;4921414;29;20048;-77
2022/09/18 08:05:45;;;;;;;2.63;2.13;;;;;;;13.74;81.30;99679.81;4932363;29;20035;-79
2022/09/18 08:08:13;;;;;;;3.67;2.33;;;;;;;13.86;82.68;99694.19;4926505;28;20039;-79
2022/09/18 08:10:41;;;;;;;3.17;2.33;;;;;;;13.85;81.70;99681.84;4960138;28;20032;-79
2022/09/18 08:13:08;;;;;;;3.15;2.85;;;;;;;13.81;82.03;99695.84;4960516;28;20023;-79
2022/09/18 08:15:37;;;;;;;2.50;2.03;;;;;;;13.69;82.27;99684.97;4940410;29;20122;-79
2022/09/18 08:18:05;;;;;;;2.47;2.27;;;;;;;13.60;82.49;99694.25;4944349;29;20062;-79
2022/09/18 08:20:32;;;;;;;5.53;3.60;;;;;;;13.50;82.72;99704.53;4937861;29;20051;-80
2022/09/18 08:22:58;;;;;;;2.90;2.03;;;;;;;13.35;84.04;99707.44;4920663;29;20054;-78
2022/09/18 08:25:26;;;;;;;3.47;2.23;;;;;;;13.21;85.02;99717.31;4937618;29;20032;-80
2022/09/18 08:27:51;;;;;;;2.35;2.15;;;;;;;13.05;84.57;99712.34;4938125;29;20118;-81
2022/09/18 08:30:17;;;;;;;4.43;3.40;;;;;;;12.87;85.74;99725.47;4920629;29;20524;-79
2022/09/18 08:32:43;;;;;;;3.17;2.70;;;;;;;12.77;85.92;99730.38;4937258;29;20375;-79
2022/09/18 08:35:09;;;;;;;3.07;2.87;;;;;;;12.74;86.01;99725.44;4945561;29;20020;-79
2022/09/18 08:37:36;;;;;;;3.33;3.03;;;;;;;12.88;86.09;99725.25;4959742;29;20051;-79
2022/09/18 08:40:03;;;;;;;3.57;3.20;;;;;;;13.10;85.41;99725.09;4959308;28;20055;-82
2022/09/18 08:42:39;;;;;;;3.73;3.43;;;;;;;13.31;83.93;99722.25;4959784;28;20050;-79
2022/09/18 08:45:25;;;;;;;3.90;3.30;;;;;;;13.45;83.04;99725.75;4934745;29;20052;-79
2022/09/18 08:48:10;;;;;;;4.53;3.90;;;;;;;13.53;82.43;99725.53;4937383;29;20046;-80
2022/09/18 08:50:42;;;;;;;4.50;3.53;;;;;;;13.61;82.08;99722.66;4939336;29;20043;-80
2022/09/18 08:53:21;;;;;;;4.60;4.10;;;;;;;13.79;82.76;99738.88;4936407;29;20455;-80
2022/09/18 08:55:47;;;;;;;5.20;4.63;;;;;;;13.91;81.80;99737.22;4935700;29;20035;-78
2022/09/18 08:58:29;;;;;;;6.87;5.50;;;;;;;14.01;80.78;99738.66;4918307;29;20098;-79
2022/09/18 09:01:02;;;;;;;8.07;5.00;;;;;;;13.92;80.75;99736.19;4935439;29;20507;-78
2022/09/18 09:04:09;;;;;;;5.33;4.77;;;;;;;13.89;81.35;99741.16;4935342;29;20086;-77
2022/09/18 09:06:44;;;;;;;4.67;4.17;;;;;;;13.94;80.93;99744.84;4934881;29;20036;-78
2022/09/18 09:09:15;;;;;;;4.70;4.30;;;;;;;13.98;80.62;99749.78;4918369;29;20514;-77
2022/09/18 09:11:57;;;;;;;5.33;4.43;;;;;;;13.81;80.54;99734.13;4935619;29;20031;-79
2022/09/18 09:14:57;;;;;;;6.23;4.90;;;;;;;13.89;80.78;99757.22;4935298;29;20059;-79
2022/09/18 09:17:40;;;;;;;5.20;4.67;;;;;;;13.84;80.25;99747.09;4935539;29;20388;-79
2022/09/18 09:20:19;;;;;;;5.20;4.57;;;;;;;13.93;81.11;99756.59;4918941;29;20066;-77
2022/09/18 09:22:44;;;;;;;;;;;;;;;14.03;81.28;99755.31;4935920;29;20035;-78
2022/09/18 09:25:29;;;;;;;6.53;4.80;;;;;;;13.88;80.69;99755.56;4935035;29;19926;-79
2022/09/18 09:28:18;;;;;;;6.20;5.40;;;;;;;13.89;81.22;99768.75;4934550;29;20044;-77
2022/09/18 09:30:51;;;;;;;7.33;5.03;;;;;;;13.77;81.49;99770.38;4935513;29;20510;-78
2022/09/18 09:33:40;;;;;;;6.60;5.30;;;;;;;13.84;81.75;99781.06;4935236;29;20104;-78
2022/09/18 09:36:11;;;;;;;5.00;4.50;;;;;;;13.66;82.15;99784.41;4918059;29;20126;-80
2022/09/18 09:38:51;;;;;;;6.60;5.77;;;;;;;13.63;82.11;99790.16;4935491;29;20376;-79
2022/09/18 09:41:28;;;;;;;6.83;5.40;;;;;;;13.68;82.77;99800.25;4938789;29;20063;-78
2022/09/18 09:44:02;;;;;;;5.03;4.40;;;;;;;13.70;82.28;99803.53;4938128;29;20107;-76
2022/09/18 09:46:46;;;;;;;7.33;4.70;;;;;;;13.81;81.74;99809.06;4923073;29;20052;-78
2022/09/18 09:49:19;;;;;;;6.23;4.27;;;;;;;13.89;80.97;99806.22;4922812;29;20279;-76
2022/09/18 09:52:11;;;;;;;5.73;4.83;;;;;;;14.12;80.47;99799.56;4942289;29;20087;-77
2022/09/18 09:54:37;;;;;;;6.27;4.50;;;;;;;14.27;79.97;99809.03;4939538;29;20067;-79
2022/09/18 09:57:38;;;;;;;5.83;4.40;;;;;;;14.49;79.15;99817.66;4920774;29;20032;-79
2022/09/18 10:00:22;;;;;;;5.63;4.10;;;;;;;14.62;78.24;99806.06;4943490;29;20050;-77
2022/09/18 10:03:21;;;;;;;8.53;4.00;;;;;;;14.79;78.91;99812.59;4918560;29;20079;-79
2022/09/18 10:06:01;;;;;;;7.37;4.23;;;;;;;14.88;78.09;99816.66;4935146;29;20122;-80
2022/09/18 10:08:48;;;;;;;5.00;4.50;;;;;;;14.76;78.40;99810.34;4935253;29;20044;-79
2022/09/18 10:11:15;;;;;;;4.43;4.03;;;;;;;14.98;77.87;99821.56;4917864;29;20063;-78
2022/09/18 10:13:54;;;;;;;4.70;3.80;;;;;;;15.03;78.19;99823.59;4934754;29;20067;-80
2022/09/18 10:16:35;;;;;;;6.75;4.55;;;;;;;14.94;77.24;99827.56;4918112;29;20047;-79
2022/09/18 10:19:02;;;;;;;4.90;4.30;;;;;;;14.95;77.62;99826.53;4935209;29;20044;-80
2022/09/18 10:21:33;;;;;;;4.27;3.80;;;;;;;15.05;78.10;99843.00;4936387;29;20074;-79
2022/09/18 10:24:18;;;;;;;3.67;3.37;;;;;;;15.01;77.39;99841.75;4935897;29;20044;-78
2022/09/18 10:27:00;;;;;;;5.57;4.13;;;;;;;14.88;78.67;99845.34;4935610;29;20036;-77
2022/09/18 10:29:26;;;;;;;8.33;4.40;;;;;;;14.86;78.81;99834.00;4919290;29;20566;-77
2022/09/18 10:31:57;;;;;;;8.33;5.10;;;;;;;14.97;78.13;99846.72;4920200;29;20214;-79
2022/09/18 10:34:35;;;;;;;5.73;4.60;;;;;;;14.90;78.53;99854.00;4936364;29;20039;-78
2022/09/18 10:37:01;;;;;;;5.50;3.80;;;;;;;14.77;78.47;99851.38;4935692;29;20043;-77
2022/09/18 10:39:29;;;;;;;9.20;4.20;;;;;;;14.67;79.31;99872.41;4942577;29;20036;-77
2022/09/18 10:42:00;;;;;;;4.95;4.45;;;;;;;14.65;79.82;99869.94;4945805;29;20031;-76
2022/09/18 10:44:35;;;;;;;5.33;4.83;;;;;;;14.66;79.24;99876.13;4945524;29;20079;-77
2022/09/18 10:47:11;;;;;;;7.40;4.63;;;;;;;14.71;79.65;99876.31;4943330;29;20027;-76
2022/09/18 10:49:48;;;;;;;5.43;4.80;;;;;;;14.82;78.58;99870.31;4941347;29;20040;-77
2022/09/18 10:52:20;;;;;;;5.93;5.20;;;;;;;14.91;78.59;99873.56;4923019;29;20043;-77
2022/09/18 10:55:13;;;;;;;4.90;4.33;;;;;;;14.83;78.10;99869.28;4941056;29;20051;-78
2022/09/18 10:57:46;;;;;;;6.63;5.27;;;;;;;14.77;78.27;99867.44;4922338;29;20050;-78
2022/09/18 11:00:18;;;;;;;5.00;4.50;;;;;;;14.90;78.17;99878.13;4922340;29;20567;-78
2022/09/18 11:02:53;;;;;;;5.97;4.50;;;;;;;15.01;77.86;99874.75;4938324;29;20036;-77
2022/09/18 11:05:40;;;;;;;4.90;4.40;;;;;;;15.05;78.43;99876.00;4938650;29;20135;-78
2022/09/18 11:08:14;;;;;;;6.50;5.20;;;;;;;15.13;77.04;99878.44;4921182;29;20558;-77
2022/09/18 11:10:47;;;;;;;4.50;4.10;;;;;;;15.12;77.55;99876.78;4937462;29;20046;-79
2022/09/18 11:13:23;;;;;;;5.63;4.10;;;;;;;15.12;77.64;99882.16;4937093;29;20043;-78
2022/09/18 11:16:01;;;;;;;5.37;4.40;;;;;;;15.04;77.02;99893.13;4936858;29;20134;-79
2022/09/18 11:18:28;;;;;;;5.85;4.53;;;;;;;14.97;78.53;99895.00;4937199;29;20082;-78
2022/09/18 11:20:57;;;;;;;4.67;4.00;;;;;;;14.95;78.00;99889.03;4938251;29;20042;-80
2022/09/18 11:23:30;;;;;;;4.45;4.00;;;;;;;14.96;78.39;99898.72;4935624;29;20566;-79
2022/09/18 11:26:20;;;;;;;4.10;3.70;;;;;;;15.02;77.42;99894.34;4939162;29;20047;-81
2022/09/18 11:28:58;;;;;;;4.47;3.90;;;;;;;15.03;78.01;99891.44;4921647;29;20032;-79
2022/09/18 11:31:27;;;;;;;4.50;3.95;;;;;;;15.07;77.04;99898.06;4937688;29;20063;-78
2022/09/18 11:33:56;;;;;;;4.17;3.53;;;;;;;15.18;77.11;99894.69;4937713;29;20415;-79
2022/09/18 11:36:26;;;;;;;4.70;3.70;;;;;;;15.21;76.03;99900.69;4937264;29;20048;-77
2022/09/18 11:38:52;;;;;;;4.10;3.57;;;;;;;15.11;77.03;99896.59;4937250;29;20046;-79
2022/09/18 11:41:34;;;;;;;4.43;4.00;;;;;;;15.21;76.60;99895.31;4938351;29;20071;-80
2022/09/18 11:44:03;;;;;;;4.30;3.33;;;;;;;15.28;75.30;99906.81;4938308;29;20040;-77
2022/09/18 11:47:06;;;;;;;3.90;3.50;;;;;;;15.26;75.07;99904.34;4939092;29;20082;-77
2022/09/18 11:49:46;;;;;;;3.17;2.72;;;;;;;15.12;75.73;99894.75;4921335;29;20048;-80
2022/09/18 11:52:12;;;;;;;3.93;3.33;;;;;;;15.16;75.81;99912.88;4937507;29;20513;-80
2022/09/18 11:54:59;;;;;;;3.93;3.53;;;;;;;15.15;77.14;99903.19;4936912;29;20071;-79